createdAt,value
2024-03-16T00:02:21.169Z,100739.31
2024-03-16T00:04:48.187Z,100733.31
2024-03-16T00:07:15.081Z,100733.16
2024-03-16T00:09:41.981Z,100737.72
2024-03-16T00:12:08.953Z,100740.56
2024-03-16T00:14:35.834Z,100747.09
2024-03-16T00:17:02.854Z,100738.56
2024-03-16T00:19:30.007Z,100735.16
2024-03-16T00:21:57.226Z,100739.94
2024-03-16T00:24:24.075Z,100737.06
2024-03-16T00:26:51.427Z,100746.22
2024-03-16T00:29:18.925Z,100746.31
2024-03-16T00:31:48.308Z,100742.34
2024-03-16T00:34:15.495Z,100736.81
2024-03-16T00:36:42.314Z,100738.69
2024-03-16T00:39:16.975Z,100743.38
2024-03-16T00:41:44.389Z,100745.50
2024-03-16T00:44:11.587Z,100747.47
2024-03-16T00:46:38.562Z,100758.69
2024-03-16T00:49:05.470Z,100744.28
2024-03-16T00:51:34.405Z,100748.00
2024-03-16T00:54:01.385Z,100748.94
2024-03-16T00:56:28.273Z,100757.06
2024-03-16T00:58:55.150Z,100745.03
2024-03-16T01:01:23.374Z,100747.44
2024-03-16T01:03:50.223Z,100745.78
2024-03-16T01:06:17.564Z,100752.31
2024-03-16T01:08:44.424Z,100767.94
2024-03-16T01:11:11.237Z,100767.13
2024-03-16T01:13:38.116Z,100770.66
2024-03-16T01:16:05.512Z,100768.28
2024-03-16T01:18:32.299Z,100772.22
2024-03-16T01:20:59.198Z,100773.94
2024-03-16T01:23:26.031Z,100775.66
2024-03-16T01:25:53.183Z,100777.13
2024-03-16T01:28:19.927Z,100773.91
2024-03-16T01:30:46.710Z,100786.19
2024-03-16T01:33:13.482Z,100788.88
2024-03-16T01:35:40.397Z,100786.47
2024-03-16T01:38:07.156Z,100791.91
2024-03-16T01:40:34.009Z,100792.41
2024-03-16T01:43:01.195Z,100792.09
2024-03-16T01:45:29.322Z,100791.00
2024-03-16T01:47:56.905Z,100792.94
2024-03-16T01:50:23.807Z,100790.63
2024-03-16T01:52:50.842Z,100790.47
2024-03-16T01:55:18.244Z,100782.66
2024-03-16T01:57:45.676Z,100786.31
2024-03-16T02:00:13.372Z,100801.25
2024-03-16T02:02:40.606Z,100793.09
2024-03-16T02:05:08.416Z,100810.16
2024-03-16T02:07:38.463Z,100807.03
2024-03-16T02:10:06.742Z,100797.47
2024-03-16T02:12:34.176Z,100804.94
2024-03-16T02:15:01.232Z,100804.59
2024-03-16T02:17:28.817Z,100815.06
2024-03-16T02:19:55.978Z,100813.25
2024-03-16T02:22:24.827Z,100816.44
2024-03-16T02:24:51.768Z,100812.69
2024-03-16T02:27:18.686Z,100810.81
2024-03-16T02:29:45.513Z,100816.13
2024-03-16T02:32:12.670Z,100816.56
2024-03-16T02:34:39.740Z,100816.19
2024-03-16T02:37:07.301Z,100811.31
2024-03-16T02:39:34.507Z,100814.38
2024-03-16T02:42:05.563Z,100812.97
2024-03-16T02:44:32.994Z,100823.91
2024-03-16T02:47:00.225Z,100829.22
2024-03-16T02:49:27.135Z,100843.41
2024-03-16T02:51:54.573Z,100844.47
2024-03-16T02:54:22.276Z,100842.44
2024-03-16T02:56:49.375Z,100833.56
2024-03-16T02:59:16.675Z,100845.16
2024-03-16T03:01:43.476Z,100857.69
2024-03-16T03:04:16.065Z,100863.22
2024-03-16T03:06:44.316Z,100863.16
2024-03-16T03:09:11.324Z,100863.91
2024-03-16T03:11:38.980Z,100864.00
2024-03-16T03:14:07.776Z,100878.09
2024-03-16T03:16:34.807Z,100874.69
2024-03-16T03:19:01.675Z,100868.66
2024-03-16T03:21:30.326Z,100877.66
2024-03-16T03:23:57.942Z,100883.38
2024-03-16T03:26:25.159Z,100889.34
2024-03-16T03:28:52.471Z,100898.56
2024-03-16T03:31:19.872Z,100909.28
2024-03-16T03:33:47.487Z,100913.56
2024-03-16T03:36:14.436Z,100911.81
2024-03-16T03:38:41.323Z,100920.41
2024-03-16T03:41:09.422Z,100935.41
2024-03-16T03:43:38.674Z,100960.81
2024-03-16T03:46:06.489Z,100964.06
2024-03-16T03:48:43.161Z,100969.53
2024-03-16T03:51:10.543Z,100973.19
2024-03-16T03:53:37.430Z,100979.00
2024-03-16T03:56:04.488Z,100990.66
2024-03-16T03:58:31.293Z,101000.44
2024-03-16T04:00:58.173Z,101004.66
2024-03-16T04:03:24.885Z,101006.94
2024-03-16T04:05:53.212Z,101004.53
2024-03-16T04:08:20.306Z,101005.41
2024-03-16T04:10:47.228Z,101025.59
2024-03-16T04:13:14.505Z,101030.38
2024-03-16T04:15:41.428Z,101027.66
2024-03-16T04:18:08.276Z,101043.19
2024-03-16T04:20:35.306Z,101040.94
2024-03-16T04:23:03.131Z,101062.47
2024-03-16T04:25:30.272Z,101065.72
2024-03-16T04:27:58.232Z,101069.56
2024-03-16T04:30:25.066Z,101071.16
2024-03-16T04:32:51.859Z,101080.75
2024-03-16T04:35:18.741Z,101092.41
2024-03-16T04:37:46.493Z,101072.91
2024-03-16T04:40:13.464Z,101078.00
2024-03-16T04:42:40.468Z,101087.28
2024-03-16T04:45:07.897Z,101099.25
2024-03-16T04:47:34.716Z,101095.72
2024-03-16T04:50:02.001Z,101101.03
2024-03-16T04:52:28.927Z,101105.97
2024-03-16T04:54:55.750Z,101104.53
2024-03-16T04:57:22.736Z,101109.66
2024-03-16T04:59:49.673Z,101112.50
2024-03-16T05:02:16.362Z,101115.91
2024-03-16T05:04:43.256Z,101126.25
2024-03-16T05:07:10.274Z,101128.78
2024-03-16T05:09:38.044Z,101139.88
2024-03-16T05:12:05.567Z,101145.50
2024-03-16T05:14:33.184Z,101148.13
2024-03-16T05:16:59.990Z,101142.66
2024-03-16T05:19:27.016Z,101147.06
2024-03-16T05:21:53.843Z,101155.53
2024-03-16T05:24:20.924Z,101164.28
2024-03-16T05:26:48.462Z,101175.97
2024-03-16T05:29:15.851Z,101179.72
2024-03-16T05:31:58.025Z,101187.44
2024-03-16T05:34:25.470Z,101191.34
2024-03-16T05:36:52.743Z,101202.59
2024-03-16T05:39:20.531Z,101214.91
2024-03-16T05:41:47.793Z,101218.38
2024-03-16T05:44:14.830Z,101222.13
2024-03-16T05:46:42.244Z,101230.03
2024-03-16T05:49:09.413Z,101224.91
2024-03-16T05:51:36.367Z,101231.59
2024-03-16T05:54:05.533Z,101248.22
2024-03-16T05:56:33.897Z,101245.09
2024-03-16T05:59:01.586Z,101247.69
2024-03-16T06:01:29.172Z,101245.63
2024-03-16T06:03:56.775Z,101269.59
2024-03-16T06:06:23.653Z,101277.53
2024-03-16T06:08:50.481Z,101282.88
2024-03-16T06:11:17.504Z,101276.94
2024-03-16T06:13:45.784Z,101294.22
2024-03-16T06:16:12.903Z,101296.50
2024-03-16T06:18:41.684Z,101303.00
2024-03-16T06:21:11.274Z,101314.03
2024-03-16T06:23:38.741Z,101313.28
2024-03-16T06:26:07.721Z,101322.50
2024-03-16T06:28:38.339Z,101338.31
2024-03-16T06:31:10.383Z,101338.91
2024-03-16T06:33:38.283Z,101341.78
2024-03-16T06:36:05.525Z,101338.19
2024-03-16T06:38:32.453Z,101354.19
2024-03-16T06:40:59.552Z,101357.47
2024-03-16T06:43:26.748Z,101357.44
2024-03-16T06:45:53.587Z,101353.84
2024-03-16T06:48:22.668Z,101359.59
2024-03-16T06:50:50.643Z,101358.50
2024-03-16T06:53:17.660Z,101367.09
2024-03-16T06:55:55.360Z,101371.00
2024-03-16T06:58:22.845Z,101393.28
2024-03-16T07:00:49.982Z,101386.69
2024-03-16T07:03:17.125Z,101408.81
2024-03-16T07:05:44.521Z,101419.84
2024-03-16T07:08:20.202Z,101422.78
2024-03-16T07:10:48.172Z,101423.34
2024-03-16T07:14:19.200Z,101432.88
2024-03-16T07:16:45.961Z,101429.81
2024-03-16T07:19:13.208Z,101437.19
2024-03-16T07:21:40.191Z,101450.41
2024-03-16T07:24:11.046Z,101461.16
2024-03-16T07:26:38.033Z,101461.38
2024-03-16T07:29:05.112Z,101470.72
2024-03-16T07:31:32.545Z,101469.25
2024-03-16T07:34:02.413Z,101483.06
2024-03-16T07:36:37.336Z,101495.25
2024-03-16T07:39:09.809Z,101477.03
2024-03-16T07:41:37.181Z,101499.88
2024-03-16T07:44:04.359Z,101509.41
2024-03-16T07:46:31.271Z,101509.59
2024-03-16T07:49:02.269Z,101514.97
2024-03-16T07:51:32.940Z,101525.88
2024-03-16T07:54:01.627Z,101519.72
2024-03-16T07:56:28.393Z,101523.06
2024-03-16T07:58:55.303Z,101525.78
2024-03-16T08:01:24.589Z,101523.72
2024-03-16T08:03:51.677Z,101519.97
2024-03-16T08:06:18.538Z,101526.44
2024-03-16T08:08:45.578Z,101537.31
2024-03-16T08:11:12.883Z,101533.69
2024-03-16T08:13:39.846Z,101541.31
2024-03-16T08:16:07.533Z,101544.84
2024-03-16T08:18:34.384Z,101546.22
2024-03-16T08:21:01.340Z,101545.31
2024-03-16T08:23:29.446Z,101560.34
2024-03-16T08:25:56.855Z,101559.63
2024-03-16T08:28:23.676Z,101570.41
2024-03-16T08:30:50.410Z,101571.56
2024-03-16T08:33:17.284Z,101577.97
2024-03-16T08:35:44.689Z,101584.69
2024-03-16T08:38:11.456Z,101599.25
2024-03-16T08:40:38.171Z,101604.59
2024-03-16T08:43:05.069Z,101602.88
2024-03-16T08:45:31.982Z,101607.38
2024-03-16T08:47:58.862Z,101593.44
2024-03-16T08:50:25.652Z,101595.81
2024-03-16T08:52:52.508Z,101600.38
2024-03-16T08:55:21.159Z,101605.88
2024-03-16T08:57:48.150Z,101605.00
2024-03-16T09:00:17.945Z,101609.91
2024-03-16T09:02:48.214Z,101619.53
2024-03-16T09:05:15.232Z,101620.13
2024-03-16T09:07:42.751Z,101630.16
2024-03-16T09:10:12.490Z,101628.59
2024-03-16T09:12:40.423Z,101640.72
2024-03-16T09:15:07.661Z,101641.78
2024-03-16T09:17:34.724Z,101651.22
2024-03-16T09:20:12.274Z,101649.78
2024-03-16T09:22:39.486Z,101654.56
2024-03-16T09:25:12.810Z,101654.34
2024-03-16T09:27:39.871Z,101656.53
2024-03-16T09:30:18.822Z,101664.44
2024-03-16T09:32:46.319Z,101676.25
2024-03-16T09:35:13.609Z,101667.94
2024-03-16T09:37:41.011Z,101667.41
2024-03-16T09:40:11.771Z,101684.69
2024-03-16T09:42:39.768Z,101687.47
